Madeira Airport Funchal PT
ICAO: LPMA
IATA: FNC
Category: Medium
Scheduled Services: Yes

Elevation: 192 ft
TransAlt. 5000 ft.

Airport Communications:
APP:119.2
TWR:118.35

LPMA Zoom In..

If you have problems with the map follow the link
https://www.worldairports.se/pages/airport.php?
ICAO=LPMA

Runways:

(A) RW 05 length 8140 ft width 148 ft
---- / hdg 51

(B) RW 23 length 8140 ft width 148 ft
---- / hdg 231

Location; LPMA
Day. 18 / Time. 22.00 Zulu
* QNH: 1028
* Temperature: 15° c. 59°f.
* Wind from: 360° Speed 07 kn.
Dewpoint: 08° c.
Visibility: 10 km or more.
Clouds: Broken 1500 ft.

LPMA 182200Z 36007KT 320V030 9999 BKN015 15/08 Q1028


Wind From 360°
Speed 07 kn.

 
 
jpsmedia.com for Web Design worldairports.se 2019   terms of use